Time;durP1;ratioP1;P1;durP2;ratioP2;P2;SDS_P1;SDS_P2;PMS_P1;PMS_P2;Temp;Humidity;BMP_temperature;BMP_pressure;BME280_temperature;BME280_humidity;BME280_pressure;Samples;Min_cycle;Max_cycle;Signal;HPM_P1;HPM_P2
2023/04/28 00:02:13;;;;;;;20.70;11.23;;;3.20;93.00;;;;;;5026935;28;20029;-76
2023/04/28 00:04:38;;;;;;;22.77;12.38;;;3.20;93.00;;;;;;5026066;28;20044;-77
2023/04/28 00:07:04;;;;;;;23.20;12.60;;;3.20;93.10;;;;;;5024945;28;20381;-76
2023/04/28 00:09:30;;;;;;;19.67;11.90;;;3.20;92.90;;;;;;5026145;28;20024;-76
2023/04/28 00:11:55;;;;;;;18.88;11.63;;;3.10;92.80;;;;;;5006165;28;20327;-76
2023/04/28 00:14:21;;;;;;;19.33;11.10;;;3.10;92.90;;;;;;5008460;28;20025;-74
2023/04/28 00:16:46;;;;;;;23.20;10.95;;;3.00;92.90;;;;;;5006706;28;20032;-76
2023/04/28 00:19:12;;;;;;;20.67;11.55;;;3.00;92.90;;;;;;4993489;28;20451;-76
2023/04/28 00:21:37;;;;;;;20.25;11.25;;;2.90;92.90;;;;;;5004669;28;20061;-75
2023/04/28 00:24:03;;;;;;;19.77;11.65;;;2.90;92.90;;;;;;5004671;28;20449;-75
2023/04/28 00:26:28;;;;;;;20.05;11.82;;;2.80;93.10;;;;;;5005142;28;20213;-75
2023/04/28 00:28:54;;;;;;;18.05;10.63;;;2.80;93.30;;;;;;5003224;28;20119;-75
2023/04/28 00:31:20;;;;;;;19.95;11.82;;;2.80;93.40;;;;;;5003130;28;20124;-75
2023/04/28 00:33:45;;;;;;;23.67;11.15;;;2.80;93.40;;;;;;5005244;28;20477;-75
2023/04/28 00:36:11;;;;;;;20.10;12.23;;;2.90;93.60;;;;;;5003785;28;20026;-75
2023/04/28 00:38:36;;;;;;;22.40;12.00;;;2.90;93.70;;;;;;5003647;28;20458;-76
2023/04/28 00:41:02;;;;;;;21.13;11.80;;;2.90;93.60;;;;;;5008390;28;20507;-76
2023/04/28 00:43:28;;;;;;;22.00;12.38;;;3.00;93.50;;;;;;5006583;28;20030;-76
2023/04/28 00:45:54;;;;;;;24.23;11.65;;;3.00;93.40;;;;;;5005877;28;20034;-76
2023/04/28 00:48:19;;;;;;;21.98;12.43;;;3.00;93.40;;;;;;5003320;28;20065;-76
2023/04/28 00:50:46;;;;;;;20.60;12.43;;;3.00;93.30;;;;;;5011712;28;20044;-76
2023/04/28 00:53:12;;;;;;;17.83;11.00;;;3.00;93.40;;;;;;4997818;28;20074;-76
2023/04/28 00:55:38;;;;;;;21.98;11.90;;;3.00;93.50;;;;;;5006545;28;20034;-76
2023/04/28 00:58:07;;;;;;;19.90;11.68;;;3.00;93.40;;;;;;5002401;28;20131;-76
2023/04/28 01:00:33;;;;;;;21.10;11.93;;;3.00;93.40;;;;;;5008587;28;20466;-76
2023/04/28 01:02:59;;;;;;;25.33;12.13;;;2.90;93.40;;;;;;5003674;28;20336;-76
2023/04/28 01:05:25;;;;;;;20.20;11.77;;;3.00;93.40;;;;;;5005018;28;20046;-76
2023/04/28 01:07:51;;;;;;;20.45;11.50;;;3.00;93.20;;;;;;5004081;28;20033;-76
2023/04/28 01:10:16;;;;;;;18.95;11.40;;;3.00;93.30;;;;;;5009585;28;20066;-76
2023/04/28 01:12:42;;;;;;;21.77;11.98;;;3.10;93.20;;;;;;5008902;28;20174;-76
2023/04/28 01:15:16;;;;;;;19.58;11.30;;;3.10;93.00;;;;;;5005109;28;20045;-76
2023/04/28 01:17:42;;;;;;;18.05;9.77;;;3.10;92.80;;;;;;5002555;28;20067;-76
2023/04/28 01:20:08;;;;;;;19.25;10.52;;;3.20;92.60;;;;;;5014029;28;20048;-75
2023/04/28 01:22:35;;;;;;;24.83;11.48;;;3.10;92.50;;;;;;5007520;28;20052;-76
2023/04/28 01:25:02;;;;;;;16.35;9.80;;;3.10;92.60;;;;;;5008799;28;20201;-76
2023/04/28 01:27:27;;;;;;;20.35;10.88;;;3.10;92.60;;;;;;5002111;28;20841;-76
2023/04/28 01:29:53;;;;;;;19.27;11.18;;;3.10;92.40;;;;;;5013646;28;20034;-76
2023/04/28 01:32:18;;;;;;;16.33;10.00;;;3.20;92.50;;;;;;5002225;28;20224;-76
2023/04/28 01:34:44;;;;;;;17.92;10.98;;;3.20;92.40;;;;;;5003676;28;20026;-76
2023/04/28 01:37:09;;;;;;;21.65;10.48;;;3.20;92.20;;;;;;5007860;28;20446;-76
2023/04/28 01:39:35;;;;;;;17.73;10.45;;;3.10;92.20;;;;;;5010151;28;20030;-76
2023/04/28 01:42:01;;;;;;;19.58;10.80;;;3.10;92.20;;;;;;5001834;28;20115;-76
2023/04/28 01:44:26;;;;;;;19.00;10.15;;;3.20;92.50;;;;;;5023070;28;20116;-76
2023/04/28 01:46:52;;;;;;;19.52;10.82;;;3.10;92.40;;;;;;5010784;28;20030;-76
2023/04/28 01:49:17;;;;;;;18.05;10.00;;;3.10;92.30;;;;;;5008524;28;20029;-75
2023/04/28 01:51:43;;;;;;;17.63;9.93;;;3.20;92.30;;;;;;5012654;28;20045;-76
2023/04/28 01:54:08;;;;;;;16.20;9.48;;;3.20;92.30;;;;;;5007855;28;20478;-76
2023/04/28 01:56:34;;;;;;;15.80;9.20;;;3.20;92.10;;;;;;5004424;28;20056;-75
2023/04/28 01:58:59;;;;;;;20.20;8.88;;;3.10;92.20;;;;;;5007211;28;20065;-76
2023/04/28 02:01:25;;;;;;;16.50;9.93;;;3.10;92.00;;;;;;5000974;28;20439;-75
2023/04/28 02:03:50;;;;;;;16.17;8.40;;;3.10;92.00;;;;;;5004579;28;20160;-76
2023/04/28 02:06:16;;;;;;;16.33;9.25;;;3.00;92.10;;;;;;5011585;28;20101;-76
2023/04/28 02:08:41;;;;;;;14.77;9.02;;;3.00;92.20;;;;;;5005522;28;20088;-76
2023/04/28 02:11:07;;;;;;;16.27;9.40;;;3.00;92.20;;;;;;5002690;28;20095;-76
2023/04/28 02:13:32;;;;;;;14.30;9.15;;;3.00;92.30;;;;;;5004596;28;20120;-76
2023/04/28 02:16:01;;;;;;;15.35;9.20;;;2.90;92.40;;;;;;5006564;28;20994;-76
2023/04/28 02:18:26;;;;;;;16.75;10.05;;;2.80;92.40;;;;;;5003496;28;20107;-75
2023/04/28 02:20:52;;;;;;;16.60;9.77;;;2.80;92.50;;;;;;5006092;28;20054;-75
2023/04/28 02:23:17;;;;;;;17.98;10.18;;;2.80;92.60;;;;;;5003645;28;20472;-74
2023/04/28 02:25:43;;;;;;;21.17;9.73;;;2.80;92.60;;;;;;5011352;28;20080;-75
2023/04/28 02:28:08;;;;;;;21.38;9.63;;;2.70;92.50;;;;;;5001938;28;20430;-75
2023/04/28 02:30:34;;;;;;;17.33;9.63;;;2.60;92.60;;;;;;5011013;28;20121;-76
2023/04/28 02:32:59;;;;;;;18.65;9.35;;;2.60;92.80;;;;;;5005381;28;20069;-75
2023/04/28 02:35:25;;;;;;;15.98;8.93;;;2.50;92.90;;;;;;5006259;28;20025;-75
2023/04/28 02:37:51;;;;;;;18.77;9.30;;;2.60;93.10;;;;;;5010995;28;20062;-75
2023/04/28 02:40:17;;;;;;;17.58;9.80;;;2.50;93.30;;;;;;5006653;28;20072;-75
2023/04/28 02:42:42;;;;;;;15.95;9.30;;;2.50;93.40;;;;;;5005016;28;20868;-75
2023/04/28 02:45:08;;;;;;;20.85;9.57;;;2.50;93.40;;;;;;5008434;28;20033;-75
2023/04/28 02:47:33;;;;;;;19.63;9.68;;;2.50;93.40;;;;;;5016656;28;20064;-75
2023/04/28 02:49:59;;;;;;;14.60;8.95;;;2.50;93.50;;;;;;5004345;28;20562;-75
2023/04/28 02:52:24;;;;;;;22.23;10.07;;;2.50;93.60;;;;;;5002110;28;20100;-75
2023/04/28 02:54:53;;;;;;;15.88;9.48;;;2.50;93.70;;;;;;5008297;28;20450;-75
2023/04/28 02:57:19;;;;;;;19.77;10.02;;;2.40;93.60;;;;;;5005163;28;20037;-75
2023/04/28 02:59:45;;;;;;;18.13;9.43;;;2.50;93.80;;;;;;5013619;28;20018;-75
2023/04/28 03:02:11;;;;;;;17.48;9.45;;;2.50;93.80;;;;;;5005158;28;20434;-75
2023/04/28 03:04:37;;;;;;;15.55;9.98;;;2.40;93.70;;;;;;5007793;28;20134;-75
2023/04/28 03:07:02;;;;;;;19.42;10.32;;;2.50;93.70;;;;;;5008314;28;20109;-75
2023/04/28 03:09:27;;;;;;;19.52;10.68;;;2.50;93.70;;;;;;5013521;28;20084;-75
2023/04/28 03:11:53;;;;;;;20.48;10.68;;;2.50;93.60;;;;;;5008976;28;20082;-75
2023/04/28 03:14:18;;;;;;;17.15;9.88;;;2.50;93.60;;;;;;5008800;28;20139;-75
2023/04/28 03:16:44;;;;;;;17.55;10.18;;;2.50;93.50;;;;;;5001097;28;20034;-75
2023/04/28 03:19:09;;;;;;;17.80;10.65;;;2.50;93.50;;;;;;5008037;28;20038;-75
2023/04/28 03:21:35;;;;;;;17.02;9.32;;;2.50;93.50;;;;;;5014380;28;20125;-75
2023/04/28 03:24:00;;;;;;;18.75;9.63;;;2.50;93.40;;;;;;5014741;28;20624;-75
2023/04/28 03:26:26;;;;;;;17.17;10.05;;;2.60;93.40;;;;;;5004691;28;20046;-75
2023/04/28 03:28:51;;;;;;;18.02;8.63;;;2.60;93.40;;;;;;5013096;28;20137;-75
2023/04/28 03:31:17;;;;;;;17.95;9.60;;;2.60;93.30;;;;;;5007222;28;20033;-75
2023/04/28 03:33:44;;;;;;;18.65;10.00;;;2.60;93.30;;;;;;4997496;28;20027;-75
2023/04/28 03:36:10;;;;;;;17.67;10.13;;;2.60;93.20;;;;;;5007771;28;20672;-75
2023/04/28 03:38:35;;;;;;;17.52;9.27;;;2.60;93.20;;;;;;5006546;28;20238;-75
2023/04/28 03:41:00;;;;;;;18.95;8.95;;;2.60;93.20;;;;;;5010097;28;20453;-76
2023/04/28 03:43:26;;;;;;;16.45;9.38;;;2.60;93.10;;;;;;5021704;28;20030;-75
2023/04/28 03:45:52;;;;;;;14.00;8.60;;;2.50;92.90;;;;;;5016304;28;20029;-75
2023/04/28 03:48:17;;;;;;;15.18;8.88;;;2.50;92.80;;;;;;5009976;28;20073;-75
2023/04/28 03:50:44;;;;;;;15.07;8.55;;;2.50;92.80;;;;;;5015829;28;20029;-76
2023/04/28 03:53:10;;;;;;;15.32;8.30;;;2.40;92.90;;;;;;5007331;28;20030;-75
2023/04/28 03:55:35;;;;;;;11.88;7.70;;;2.40;92.80;;;;;;5009040;28;20107;-75
2023/04/28 03:58:01;;;;;;;14.00;8.00;;;2.40;92.90;;;;;;5006884;28;20041;-75
2023/04/28 04:00:26;;;;;;;15.52;7.68;;;2.30;92.90;;;;;;5006617;28;20506;-75
2023/04/28 04:02:52;;;;;;;13.82;8.13;;;2.30;93.00;;;;;;5002724;28;20057;-75
2023/04/28 04:05:17;;;;;;;14.05;7.70;;;2.20;92.90;;;;;;5008944;28;20149;-75
2023/04/28 04:07:43;;;;;;;13.43;7.63;;;2.30;92.80;;;;;;5003154;28;20495;-76
2023/04/28 04:10:09;;;;;;;15.10;8.25;;;2.30;93.00;;;;;;5006542;28;20144;-75
2023/04/28 04:12:34;;;;;;;13.48;7.30;;;2.20;92.80;;;;;;5008130;28;20112;-75
2023/04/28 04:15:00;;;;;;;12.25;7.10;;;2.30;92.90;;;;;;5004445;28;20160;-75
2023/04/28 04:17:25;;;;;;;13.95;7.07;;;2.40;92.70;;;;;;5005720;28;20018;-75
2023/04/28 04:19:51;;;;;;;14.20;6.85;;;2.40;92.40;;;;;;5004260;28;20336;-75
2023/04/28 04:22:16;;;;;;;14.85;7.00;;;2.50;92.20;;;;;;5007564;28;20157;-75
2023/04/28 04:24:42;;;;;;;17.33;7.47;;;2.60;91.80;;;;;;5003907;28;20058;-75
2023/04/28 04:27:07;;;;;;;13.68;7.18;;;2.60;91.80;;;;;;5006863;28;20341;-75
2023/04/28 04:29:33;;;;;;;12.70;6.88;;;2.70;91.60;;;;;;5006064;28;20025;-75
2023/04/28 04:31:58;;;;;;;19.15;7.13;;;2.80;91.40;;;;;;5004867;28;20148;-75
2023/04/28 04:34:24;;;;;;;11.45;6.45;;;2.80;91.20;;;;;;5005716;28;20156;-74
2023/04/28 04:36:49;;;;;;;10.43;6.18;;;2.90;90.90;;;;;;5006474;28;20030;-75
2023/04/28 04:39:15;;;;;;;13.10;7.00;;;2.90;90.90;;;;;;5004060;28;20140;-75
2023/04/28 04:41:41;;;;;;;11.82;6.15;;;3.00;90.70;;;;;;5006062;28;20058;-76
2023/04/28 04:44:06;;;;;;;11.27;6.63;;;3.00;90.50;;;;;;5004342;28;20328;-75
2023/04/28 04:46:32;;;;;;;8.77;5.60;;;3.20;89.90;;;;;;4999576;28;20022;-76
2023/04/28 04:48:57;;;;;;;9.95;5.63;;;3.30;89.30;;;;;;4988964;28;20305;-75
2023/04/28 04:51:23;;;;;;;11.90;6.05;;;3.40;89.00;;;;;;4995553;28;20459;-75
2023/04/28 04:53:48;;;;;;;12.45;6.30;;;3.50;88.40;;;;;;5002331;28;20162;-75
2023/04/28 04:56:14;;;;;;;9.43;5.70;;;3.60;88.10;;;;;;5007451;28;20101;-75
2023/04/28 04:58:43;;;;;;;9.70;5.82;;;3.60;87.80;;;;;;5007101;28;20112;-75
2023/04/28 05:01:09;;;;;;;10.75;5.57;;;3.80;87.40;;;;;;5002786;28;20107;-75
2023/04/28 05:03:34;;;;;;;10.48;5.65;;;3.90;87.00;;;;;;4999387;28;20033;-74
2023/04/28 05:06:01;;;;;;;9.60;5.80;;;4.00;86.30;;;;;;4998871;28;20431;-75
2023/04/28 05:08:27;;;;;;;13.85;5.20;;;4.10;86.50;;;;;;5000530;28;20022;-74
2023/04/28 05:10:52;;;;;;;12.90;5.50;;;4.20;85.80;;;;;;5021838;28;20393;-73
2023/04/28 05:13:18;;;;;;;10.65;5.25;;;4.40;85.10;;;;;;5006839;28;20581;-73
2023/04/28 05:15:43;;;;;;;12.85;5.60;;;4.50;84.80;;;;;;4998838;28;20057;-73
2023/04/28 05:18:10;;;;;;;6.63;4.07;;;4.60;83.90;;;;;;5004186;28;20033;-75
2023/04/28 05:20:36;;;;;;;9.50;4.38;;;4.80;84.10;;;;;;5006068;28;20017;-75
2023/04/28 05:23:02;;;;;;;12.80;4.38;;;4.90;83.00;;;;;;4996280;28;20031;-74
2023/04/28 05:25:27;;;;;;;12.68;5.07;;;5.00;82.90;;;;;;5007840;28;20049;-73
2023/04/28 05:27:55;;;;;;;9.23;4.68;;;5.10;82.60;;;;;;5004152;28;20326;-75
2023/04/28 05:30:21;;;;;;;10.23;4.90;;;5.20;82.20;;;;;;5005297;28;20377;-72
2023/04/28 05:32:46;;;;;;;8.48;4.25;;;5.40;81.60;;;;;;5001932;28;20038;-72
2023/04/28 05:35:12;;;;;;;7.72;3.97;;;5.50;81.30;;;;;;5004213;28;20045;-73
2023/04/28 05:37:38;;;;;;;9.48;4.53;;;5.60;80.30;;;;;;5012447;28;20200;-72
2023/04/28 05:40:04;;;;;;;9.45;4.70;;;5.70;79.00;;;;;;5008418;28;20110;-72
2023/04/28 05:42:30;;;;;;;10.00;4.07;;;5.90;79.30;;;;;;5004239;28;20021;-72
2023/04/28 05:44:56;;;;;;;10.07;3.75;;;6.00;78.10;;;;;;5008045;28;20033;-73
2023/04/28 05:47:21;;;;;;;6.60;4.07;;;6.10;77.60;;;;;;5024920;28;20346;-72
2023/04/28 05:49:47;;;;;;;10.50;4.45;;;6.30;76.60;;;;;;5007124;28;20120;-73
2023/04/28 05:52:12;;;;;;;8.15;3.95;;;6.50;77.60;;;;;;5001185;28;20108;-73
2023/04/28 05:54:38;;;;;;;9.15;3.67;;;6.50;74.40;;;;;;5010328;28;20093;-72
2023/04/28 05:57:04;;;;;;;10.63;4.05;;;6.50;74.00;;;;;;5004064;28;20129;-72
2023/04/28 05:59:30;;;;;;;8.65;4.03;;;6.70;75.00;;;;;;4995391;28;20046;-72
2023/04/28 06:01:55;;;;;;;11.73;3.80;;;6.90;75.10;;;;;;5002845;28;20064;-73
2023/04/28 06:04:21;;;;;;;7.75;3.80;;;6.90;72.80;;;;;;5004793;28;20109;-74
2023/04/28 06:06:46;;;;;;;7.25;3.65;;;7.10;74.00;;;;;;5001991;28;20074;-73
2023/04/28 06:09:12;;;;;;;7.70;3.47;;;7.20;73.20;;;;;;5006790;28;20022;-72
2023/04/28 06:11:37;;;;;;;9.75;4.25;;;7.20;71.70;;;;;;5005991;28;20132;-73
2023/04/28 06:14:03;;;;;;;5.95;3.33;;;7.20;70.70;;;;;;5001893;28;20019;-75
2023/04/28 06:16:28;;;;;;;8.30;3.50;;;7.30;71.60;;;;;;4998291;28;20127;-75
2023/04/28 06:18:54;;;;;;;6.55;3.58;;;7.40;70.00;;;;;;4998625;28;20140;-73
2023/04/28 06:21:20;;;;;;;7.50;3.53;;;7.50;69.60;;;;;;4998175;28;20327;-74
2023/04/28 06:23:45;;;;;;;7.68;3.50;;;7.60;69.30;;;;;;5002557;28;20411;-74
2023/04/28 06:26:11;;;;;;;8.90;3.58;;;7.80;69.20;;;;;;4998340;28;20046;-76
2023/04/28 06:28:36;;;;;;;6.72;3.33;;;8.10;71.20;;;;;;5007039;28;20022;-72
2023/04/28 06:31:02;;;;;;;6.95;3.22;;;8.30;69.70;;;;;;5000735;28;20057;-72
2023/04/28 06:33:28;;;;;;;5.82;3.40;;;8.50;67.00;;;;;;5008244;28;20117;-72
2023/04/28 06:35:53;;;;;;;6.75;3.58;;;8.50;66.60;;;;;;5000666;28;20037;-72
2023/04/28 06:38:19;;;;;;;6.13;3.30;;;8.70;65.70;;;;;;4995474;28;20089;-74
2023/04/28 06:40:44;;;;;;;10.00;3.67;;;8.80;64.90;;;;;;4995035;28;20128;-72
2023/04/28 06:43:10;;;;;;;7.70;3.40;;;8.80;62.70;;;;;;5007385;28;20632;-72
2023/04/28 06:45:36;;;;;;;8.65;3.00;;;9.00;63.30;;;;;;5006817;28;20041;-71
2023/04/28 06:48:02;;;;;;;5.85;3.30;;;9.30;64.00;;;;;;4995369;28;20188;-72
2023/04/28 06:50:27;;;;;;;7.80;3.40;;;9.70;64.70;;;;;;4996632;28;20234;-72
2023/04/28 06:52:53;;;;;;;8.85;3.20;;;10.00;63.50;;;;;;5001582;28;20316;-72
2023/04/28 06:55:18;;;;;;;6.15;2.92;;;10.00;62.00;;;;;;5006162;28;20038;-72
2023/04/28 06:57:44;;;;;;;8.40;3.08;;;9.80;61.10;;;;;;5002521;28;20113;-72
2023/04/28 07:00:11;;;;;;;8.00;2.78;;;9.60;61.00;;;;;;5003711;28;20037;-72
2023/04/28 07:02:37;;;;;;;6.03;3.35;;;9.70;62.30;;;;;;5000597;28;20061;-72
2023/04/28 07:05:03;;;;;;;9.52;2.92;;;9.70;61.30;;;;;;5002287;28;20062;-72
2023/04/28 07:07:29;;;;;;;6.05;2.85;;;9.60;60.90;;;;;;5007954;28;20045;-72
2023/04/28 07:09:55;;;;;;;6.93;2.97;;;9.60;61.60;;;;;;5007242;28;20030;-72
2023/04/28 07:12:21;;;;;;;9.45;3.10;;;9.60;61.10;;;;;;5007986;28;20078;-72
2023/04/28 07:14:47;;;;;;;6.30;3.08;;;9.70;62.30;;;;;;5003442;28;20025;-72
2023/04/28 07:17:12;;;;;;;6.60;2.97;;;9.90;61.00;;;;;;5004835;28;20457;-72
2023/04/28 07:19:38;;;;;;;7.32;3.40;;;10.00;60.70;;;;;;5006330;28;20183;-72
2023/04/28 07:22:03;;;;;;;8.82;3.40;;;10.10;59.80;;;;;;5006988;28;20326;-72
2023/04/28 07:24:29;;;;;;;6.03;3.13;;;10.20;59.60;;;;;;5009494;28;20033;-72
2023/04/28 07:26:56;;;;;;;5.75;3.08;;;10.40;58.80;;;;;;5005661;28;20049;-72
2023/04/28 07:29:21;;;;;;;8.25;3.70;;;10.50;59.00;;;;;;5000558;28;20443;-74
2023/04/28 07:31:47;;;;;;;10.98;3.80;;;10.50;57.80;;;;;;5000901;28;20026;-74
2023/04/28 07:34:12;;;;;;;7.20;3.40;;;10.80;57.70;;;;;;5000592;28;20044;-70
2023/04/28 07:36:38;;;;;;;7.70;3.13;;;10.80;57.50;;;;;;4996376;28;20218;-70
2023/04/28 07:39:03;;;;;;;7.07;2.95;;;10.80;57.40;;;;;;5008399;28;20052;-70
2023/04/28 07:41:29;;;;;;;8.88;3.22;;;11.00;57.80;;;;;;5006557;28;20104;-73
2023/04/28 07:43:54;;;;;;;6.95;3.65;;;11.20;57.50;;;;;;5006443;28;20053;-72
2023/04/28 07:46:20;;;;;;;5.53;3.20;;;11.60;58.10;;;;;;5002809;28;20362;-71
2023/04/28 07:48:45;;;;;;;9.98;3.80;;;11.70;56.40;;;;;;4998675;28;20428;-70
2023/04/28 07:51:11;;;;;;;7.25;3.50;;;11.90;55.70;;;;;;4996859;28;20013;-70
2023/04/28 07:53:36;;;;;;;8.05;3.42;;;11.50;55.70;;;;;;5001351;28;20077;-69
2023/04/28 07:56:02;;;;;;;6.75;3.70;;;11.50;55.00;;;;;;4999979;28;20014;-71
2023/04/28 07:58:28;;;;;;;8.27;4.10;;;11.50;55.10;;;;;;5005446;28;20106;-70
2023/04/28 08:00:53;;;;;;;6.88;3.30;;;11.50;54.80;;;;;;5014137;28;20350;-71
2023/04/28 08:03:19;;;;;;;5.53;3.38;;;11.70;54.40;;;;;;5006637;28;20033;-71
2023/04/28 08:05:44;;;;;;;7.63;3.65;;;11.70;53.40;;;;;;5012683;28;20039;-71
2023/04/28 08:08:10;;;;;;;5.30;3.58;;;11.90;55.30;;;;;;5006079;28;20095;-72
2023/04/28 08:10:39;;;;;;;8.27;4.13;;;12.40;55.10;;;;;;5003027;28;20044;-73
2023/04/28 08:13:04;;;;;;;7.45;3.60;;;12.20;52.20;;;;;;4998783;28;20046;-70
2023/04/28 08:15:30;;;;;;;12.52;4.00;;;12.70;54.00;;;;;;5015189;28;20057;-71
2023/04/28 08:17:55;;;;;;;7.05;3.85;;;13.30;54.40;;;;;;5000712;28;20058;-74
2023/04/28 08:20:21;;;;;;;9.70;3.92;;;13.30;53.80;;;;;;5004169;28;20382;-72
2023/04/28 08:22:46;;;;;;;6.95;3.58;;;12.90;51.40;;;;;;5008658;28;20068;-73
2023/04/28 08:25:12;;;;;;;8.85;3.78;;;12.70;51.70;;;;;;5004289;28;20054;-71
2023/04/28 08:27:38;;;;;;;6.00;3.30;;;13.00;50.50;;;;;;5005565;28;20109;-71
2023/04/28 08:30:09;;;;;;;7.05;3.67;;;13.00;50.70;;;;;;5008535;28;20500;-72
2023/04/28 08:32:34;;;;;;;8.77;3.92;;;13.50;50.20;;;;;;5000235;28;20117;-72
2023/04/28 08:35:03;;;;;;;8.85;3.90;;;13.90;50.20;;;;;;5008049;28;20407;-72
2023/04/28 08:37:29;;;;;;;7.40;3.85;;;14.30;49.00;;;;;;5006872;28;20083;-73
2023/04/28 08:40:01;;;;;;;9.43;4.13;;;14.30;49.10;;;;;;5001773;28;20029;-73
2023/04/28 08:42:33;;;;;;;10.52;4.10;;;14.20;47.60;;;;;;5007462;28;20044;-72
2023/04/28 08:44:58;;;;;;;9.80;4.30;;;14.40;46.60;;;;;;5007128;28;20076;-73
2023/04/28 08:47:35;;;;;;;9.15;3.75;;;14.50;48.60;;;;;;5005628;28;20472;-72
2023/04/28 08:50:04;;;;;;;7.90;3.83;;;14.60;47.70;;;;;;5006005;28;20018;-71
2023/04/28 08:52:30;;;;;;;8.45;4.00;;;14.50;47.00;;;;;;4990896;28;20026;-72
2023/04/28 08:54:58;;;;;;;9.15;4.15;;;14.50;47.60;;;;;;5001859;28;20474;-72
2023/04/28 08:57:31;;;;;;;12.80;4.60;;;14.30;48.50;;;;;;5001544;28;20415;-73
2023/04/28 08:59:57;;;;;;;11.15;4.75;;;14.10;48.00;;;;;;5000011;28;20675;-74
2023/04/28 09:02:23;;;;;;;12.57;4.68;;;13.80;48.80;;;;;;5002850;28;20104;-72
2023/04/28 09:04:48;;;;;;;10.57;4.68;;;13.90;49.40;;;;;;5003499;28;20125;-75
2023/04/28 09:07:14;;;;;;;8.25;4.65;;;13.60;49.00;;;;;;5008600;28;20029;-73
2023/04/28 09:09:41;;;;;;;9.35;4.80;;;13.80;48.70;;;;;;4999357;28;20105;-73
2023/04/28 09:12:06;;;;;;;6.47;4.63;;;14.00;48.50;;;;;;5002578;28;20163;-71
2023/04/28 09:14:34;;;;;;;11.00;4.60;;;13.70;48.90;;;;;;4998559;28;20061;-74
2023/04/28 09:17:01;;;;;;;8.15;4.32;;;14.10;50.20;;;;;;4998467;28;20041;-73
2023/04/28 09:19:35;;;;;;;10.40;4.18;;;14.40;49.10;;;;;;4999684;28;20026;-73
2023/04/28 09:22:01;;;;;;;7.85;4.40;;;14.40;48.40;;;;;;5005442;28;20092;-73
2023/04/28 09:24:39;;;;;;;10.95;5.00;;;14.30;48.60;;;;;;4994835;28;20033;-74
2023/04/28 09:27:10;;;;;;;8.50;4.28;;;14.30;48.10;;;;;;4998216;28;20034;-74
2023/04/28 09:29:37;;;;;;;10.13;5.10;;;14.30;48.00;;;;;;5001578;28;20025;-75
2023/04/28 09:32:29;;;;;;;9.90;4.85;;;14.50;47.20;;;;;;5005565;28;20025;-74
2023/04/28 09:34:55;;;;;;;11.38;4.90;;;14.40;47.90;;;;;;4999585;28;20419;-75
2023/04/28 09:37:29;;;;;;;9.07;4.97;;;14.40;48.40;;;;;;5006533;28;20042;-76
2023/04/28 09:39:55;;;;;;;9.07;4.45;;;14.30;48.10;;;;;;5000913;28;20048;-76
2023/04/28 09:42:37;;;;;;;10.30;4.57;;;14.40;48.10;;;;;;4995402;28;20038;-73
2023/04/28 09:45:05;;;;;;;8.93;4.90;;;14.70;47.80;;;;;;5001754;28;20303;-75
2023/04/28 09:47:34;;;;;;;9.77;5.20;;;14.80;48.40;;;;;;4995363;28;20049;-74
2023/04/28 09:50:01;;;;;;;10.75;4.88;;;15.20;48.50;;;;;;4992924;28;20038;-74
2023/04/28 09:52:27;;;;;;;10.07;4.80;;;15.40;46.50;;;;;;5007875;28;20117;-74
2023/04/28 09:54:55;;;;;;;8.68;4.47;;;15.20;47.40;;;;;;4996836;28;20433;-74
2023/04/28 09:57:21;;;;;;;10.68;4.82;;;15.00;47.70;;;;;;4999902;28;20438;-73
2023/04/28 09:59:52;;;;;;;9.48;4.47;;;15.40;48.50;;;;;;5002796;28;20033;-76
2023/04/28 10:02:19;;;;;;;9.60;4.30;;;15.30;47.50;;;;;;5004163;28;20041;-75
2023/04/28 10:04:49;;;;;;;10.30;4.80;;;15.30;47.50;;;;;;4999013;28;20030;-76
2023/04/28 10:07:15;;;;;;;9.10;4.55;;;15.10;46.30;;;;;;5000979;28;20066;-75
2023/04/28 10:09:52;;;;;;;10.88;4.70;;;15.10;46.40;;;;;;5002971;28;20036;-76
2023/04/28 10:12:19;;;;;;;10.20;4.93;;;15.10;47.30;;;;;;5004116;28;20033;-75
2023/04/28 10:14:45;;;;;;;9.20;4.53;;;14.70;46.50;;;;;;5003973;28;20311;-76
2023/04/28 10:17:13;;;;;;;9.07;4.75;;;14.70;47.20;;;;;;4998049;28;20072;-76
2023/04/28 10:19:40;;;;;;;8.93;4.75;;;14.60;48.00;;;;;;5011603;28;20049;-76
2023/04/28 10:22:28;;;;;;;8.32;4.47;;;14.80;47.80;;;;;;4998923;28;20030;-75
2023/04/28 10:25:03;;;;;;;9.13;4.40;;;14.80;48.40;;;;;;4990730;28;20042;-75
2023/04/28 10:27:30;;;;;;;10.63;4.18;;;14.50;47.40;;;;;;4997920;28;20104;-76
2023/04/28 10:30:13;;;;;;;9.27;4.63;;;14.80;48.40;;;;;;4998523;28;20030;-75
2023/04/28 10:32:39;;;;;;;9.75;4.35;;;15.10;48.50;;;;;;4999084;28;20567;-75
2023/04/28 10:35:23;;;;;;;8.70;4.72;;;15.10;47.90;;;;;;4992071;28;20038;-76
2023/04/28 10:38:09;;;;;;;9.90;4.65;;;15.10;47.20;;;;;;4998580;28;20046;-76
2023/04/28 10:40:37;;;;;;;7.32;4.43;;;15.00;47.80;;;;;;5002219;28;20030;-77
2023/04/28 10:43:03;;;;;;;7.72;4.65;;;15.00;47.70;;;;;;4997785;28;20042;-70
2023/04/28 10:45:59;;;;;;;9.88;4.60;;;14.80;47.30;;;;;;4998211;28;20053;-76
2023/04/28 10:48:25;;;;;;;9.63;4.78;;;15.00;49.60;;;;;;5003329;28;20044;-76
2023/04/28 10:51:06;;;;;;;9.82;4.32;;;14.80;49.40;;;;;;5002585;28;20286;-77
2023/04/28 10:53:43;;;;;;;9.32;5.22;;;15.00;47.90;;;;;;5005500;28;20136;-77
2023/04/28 10:56:26;;;;;;;8.93;4.90;;;14.90;47.30;;;;;;5003862;28;20046;-76
2023/04/28 10:58:54;;;;;;;10.15;4.80;;;15.30;48.10;;;;;;5010654;28;20070;-76
2023/04/28 11:01:33;;;;;;;8.10;4.57;;;15.10;47.10;;;;;;5002388;28;20057;-77
2023/04/28 11:04:12;;;;;;;8.25;4.85;;;15.30;45.70;;;;;;4997208;28;20438;-77
2023/04/28 11:06:42;;;;;;;11.00;5.00;;;16.10;47.60;;;;;;5009159;28;20116;-77
2023/04/28 11:09:13;;;;;;;9.35;4.57;;;16.00;45.80;;;;;;5001698;28;20080;-76
2023/04/28 11:11:58;;;;;;;12.55;4.72;;;16.40;46.50;;;;;;5008293;28;20095;-77
2023/04/28 11:14:23;;;;;;;11.07;5.07;;;16.20;45.90;;;;;;5007440;28;20053;-77
2023/04/28 11:16:54;;;;;;;9.57;4.75;;;16.40;46.90;;;;;;5004059;28;20041;-78
2023/04/28 11:19:28;;;;;;;11.70;5.03;;;16.30;47.00;;;;;;5008280;28;20420;-76
2023/04/28 11:21:55;;;;;;;10.75;4.63;;;16.30;45.10;;;;;;5008727;28;20113;-75
2023/04/28 11:24:24;;;;;;;11.40;5.05;;;15.90;46.90;;;;;;5019647;28;20055;-76
2023/04/28 11:26:50;;;;;;;7.35;4.38;;;16.00;47.20;;;;;;5009795;28;20025;-75
2023/04/28 11:29:15;;;;;;;10.07;4.65;;;16.10;47.10;;;;;;5009283;28;20104;-77
2023/04/28 11:31:49;;;;;;;9.65;4.35;;;16.00;47.40;;;;;;5008174;28;20121;-76
2023/04/28 11:34:19;;;;;;;8.95;4.45;;;15.80;47.40;;;;;;4998740;28;20029;-77
2023/04/28 11:36:44;;;;;;;8.05;3.92;;;15.70;47.50;;;;;;5005880;28;20018;-76
2023/04/28 11:39:12;;;;;;;9.40;4.65;;;15.90;48.50;;;;;;5008656;28;20044;-76
2023/04/28 11:41:39;;;;;;;10.60;4.55;;;15.90;48.20;;;;;;5009559;28;20454;-76
2023/04/28 11:44:12;;;;;;;9.73;4.68;;;15.50;47.10;;;;;;5005112;28;20374;-76
2023/04/28 11:46:53;;;;;;;9.63;4.75;;;15.50;48.10;;;;;;5013757;28;20347;-77
2023/04/28 11:49:20;;;;;;;8.85;5.20;;;15.60;49.40;;;;;;5008410;28;20467;-77
2023/04/28 11:51:47;;;;;;;12.35;4.78;;;15.00;48.00;;;;;;5007127;28;20048;-76
2023/04/28 11:54:13;;;;;;;9.63;4.95;;;14.90;48.80;;;;;;5001537;28;20045;-76
2023/04/28 11:56:43;;;;;;;9.80;5.15;;;14.90;49.00;;;;;;5002306;28;20109;-76
2023/04/28 11:59:10;;;;;;;8.57;4.80;;;14.90;48.00;;;;;;5000614;28;20239;-77
2023/04/28 12:01:47;;;;;;;10.50;5.00;;;14.80;49.90;;;;;;5007115;28;20021;-76
2023/04/28 12:04:24;;;;;;;8.85;4.55;;;14.90;49.20;;;;;;5007794;28;20087;-75
2023/04/28 12:07:05;;;;;;;9.68;4.78;;;14.70;48.90;;;;;;5008185;28;20029;-77
2023/04/28 12:09:32;;;;;;;10.63;5.18;;;14.90;49.30;;;;;;5006407;28;20156;-76
2023/04/28 12:12:03;;;;;;;8.32;5.47;;;15.00;49.70;;;;;;5004831;28;20324;-76
2023/04/28 12:14:30;;;;;;;12.20;5.40;;;14.90;50.20;;;;;;5006162;28;20034;-77
2023/04/28 12:16:57;;;;;;;11.13;5.35;;;14.80;50.70;;;;;;5007283;28;20458;-75
2023/04/28 12:19:22;;;;;;;9.52;5.55;;;15.00;50.10;;;;;;5007584;28;20025;-75
2023/04/28 12:22:02;;;;;;;9.32;5.32;;;15.30;50.10;;;;;;5006941;28;20423;-76
2023/04/28 12:24:29;;;;;;;12.70;5.70;;;15.30;50.60;;;;;;5000647;28;20121;-76
2023/04/28 12:27:12;;;;;;;9.60;5.15;;;15.40;50.00;;;;;;5003910;28;20033;-76
2023/04/28 12:29:38;;;;;;;10.32;5.38;;;15.30;50.80;;;;;;5003386;28;20116;-78
2023/04/28 12:32:05;;;;;;;12.73;5.13;;;15.00;51.10;;;;;;5005953;28;20073;-76
2023/04/28 12:34:32;;;;;;;7.80;4.72;;;15.10;51.90;;;;;;5004109;28;20041;-76
2023/04/28 12:37:01;;;;;;;12.25;5.32;;;15.00;52.40;;;;;;5008585;28;20269;-75
2023/04/28 12:39:27;;;;;;;11.27;5.18;;;15.00;51.50;;;;;;5004043;28;20184;-75
2023/04/28 12:41:58;;;;;;;9.98;5.10;;;15.10;52.70;;;;;;5008903;28;20486;-74
2023/04/28 12:44:24;;;;;;;8.48;4.57;;;15.00;51.40;;;;;;5005858;28;20363;-75
2023/04/28 12:46:50;;;;;;;8.88;4.68;;;15.00;51.30;;;;;;5002700;28;20463;-75